createdAt,value
2023-04-07T00:00:00.224Z,31.60
2023-04-07T00:02:29.030Z,31.56
2023-04-07T00:04:58.726Z,31.49
2023-04-07T00:07:27.498Z,31.40
2023-04-07T00:09:55.787Z,31.63
2023-04-07T00:12:24.429Z,31.33
2023-04-07T00:14:52.777Z,31.35
2023-04-07T00:17:21.437Z,31.44
2023-04-07T00:19:49.742Z,31.35
2023-04-07T00:22:18.399Z,31.41
2023-04-07T00:24:46.638Z,31.40
2023-04-07T00:27:15.677Z,31.46
2023-04-07T00:29:46.818Z,31.45
2023-04-07T00:32:15.737Z,31.42
2023-04-07T00:34:44.041Z,31.53
2023-04-07T00:37:12.729Z,31.42
2023-04-07T00:39:41.060Z,31.55
2023-04-07T00:42:09.774Z,31.51
2023-04-07T00:44:38.426Z,31.60
2023-04-07T00:47:07.095Z,31.53
2023-04-07T00:49:35.316Z,31.60
2023-04-07T00:52:04.910Z,31.58
2023-04-07T00:54:33.245Z,31.46
2023-04-07T00:57:01.977Z,31.44
2023-04-07T00:59:31.857Z,31.63
2023-04-07T01:02:27.626Z,31.55
2023-04-07T01:05:11.554Z,31.62
2023-04-07T01:08:14.252Z,31.97
2023-04-07T01:11:19.800Z,31.59
2023-04-07T01:13:53.499Z,31.62
2023-04-07T01:16:53.972Z,31.82
2023-04-07T01:19:53.694Z,31.72
2023-04-07T01:22:28.713Z,31.71
2023-04-07T01:25:30.863Z,31.76
2023-04-07T01:28:02.779Z,31.72
2023-04-07T01:30:38.493Z,31.70
2023-04-07T01:33:07.136Z,31.78
2023-04-07T01:35:36.243Z,31.83
2023-04-07T01:38:05.556Z,31.65
2023-04-07T01:40:35.456Z,31.71
2023-04-07T01:43:03.851Z,31.84
2023-04-07T01:45:32.784Z,32.02
2023-04-07T01:48:01.236Z,31.79
2023-04-07T01:50:30.164Z,31.73
2023-04-07T01:52:58.468Z,31.76
2023-04-07T01:55:27.229Z,31.88
2023-04-07T01:58:08.125Z,32.03
2023-04-07T02:00:39.201Z,31.78
2023-04-07T02:03:24.451Z,32.02
2023-04-07T02:05:56.734Z,31.89
2023-04-07T02:08:30.452Z,32.06
2023-04-07T02:11:01.173Z,31.96
2023-04-07T02:13:33.210Z,31.87
2023-04-07T02:16:02.915Z,31.81
2023-04-07T02:18:32.620Z,31.81
2023-04-07T02:21:01.587Z,32.11
2023-04-07T02:23:29.901Z,32.03
2023-04-07T02:25:58.948Z,32.00
2023-04-07T02:28:27.278Z,31.96
2023-04-07T02:30:56.226Z,31.94
2023-04-07T02:33:24.536Z,31.98
2023-04-07T02:35:53.191Z,31.65
2023-04-07T02:38:23.071Z,31.87
2023-04-07T02:40:51.665Z,32.04
2023-04-07T02:43:21.688Z,31.87
2023-04-07T02:45:53.362Z,31.67
2023-04-07T02:48:21.811Z,31.78
2023-04-07T02:50:50.445Z,31.86
2023-04-07T02:53:18.869Z,31.89
2023-04-07T02:55:47.511Z,31.83
2023-04-07T02:58:16.284Z,31.98
2023-04-07T03:00:49.081Z,31.92
2023-04-07T03:03:22.172Z,31.94
2023-04-07T03:06:14.644Z,31.90
2023-04-07T03:09:03.266Z,31.65
2023-04-07T03:11:32.040Z,31.92
2023-04-07T03:14:02.085Z,31.80
2023-04-07T03:16:32.698Z,32.01
2023-04-07T03:19:19.428Z,32.03
2023-04-07T03:21:51.536Z,31.98
2023-04-07T03:24:19.880Z,31.98
2023-04-07T03:26:48.924Z,32.04
2023-04-07T03:29:39.909Z,32.16
2023-04-07T03:32:11.947Z,32.14
2023-04-07T03:34:40.388Z,32.22
2023-04-07T03:37:08.987Z,32.06
2023-04-07T03:39:40.367Z,32.08
2023-04-07T03:42:22.888Z,32.31
2023-04-07T03:44:53.672Z,32.18
2023-04-07T03:47:22.987Z,32.18
2023-04-07T03:49:57.570Z,32.31
2023-04-07T03:52:26.416Z,32.08
2023-04-07T03:55:01.918Z,32.18
2023-04-07T03:57:33.998Z,32.35
2023-04-07T04:00:02.959Z,32.24
2023-04-07T04:02:44.998Z,32.42
2023-04-07T04:05:18.619Z,32.27
2023-04-07T04:07:47.630Z,32.22
2023-04-07T04:10:16.571Z,32.34
2023-04-07T04:12:49.812Z,32.31
2023-04-07T04:15:21.207Z,32.14
2023-04-07T04:17:51.446Z,32.18
2023-04-07T04:20:22.739Z,32.24
2023-04-07T04:22:52.950Z,32.34
2023-04-07T04:25:21.689Z,32.34
2023-04-07T04:27:54.576Z,32.23
2023-04-07T04:30:25.865Z,32.34
2023-04-07T04:32:58.747Z,32.33
2023-04-07T04:35:37.606Z,32.29
2023-04-07T04:38:16.913Z,32.36
2023-04-07T04:40:51.518Z,32.32
2023-04-07T04:43:25.620Z,32.44
2023-04-07T04:45:54.366Z,32.38
2023-04-07T04:48:27.487Z,32.50
2023-04-07T04:50:56.250Z,32.45
2023-04-07T04:53:24.820Z,32.38
2023-04-07T04:55:58.139Z,32.53
2023-04-07T04:58:40.565Z,32.52
2023-04-07T05:01:09.886Z,32.39
2023-04-07T05:03:43.914Z,32.36
2023-04-07T05:06:18.831Z,32.42
2023-04-07T05:08:50.006Z,32.37
2023-04-07T05:11:22.180Z,32.56
2023-04-07T05:13:54.050Z,32.47
2023-04-07T05:16:22.787Z,32.51
2023-04-07T05:18:51.995Z,32.43
2023-04-07T05:21:22.453Z,32.55
2023-04-07T05:23:54.368Z,32.58
2023-04-07T05:26:26.451Z,32.57
2023-04-07T05:28:56.187Z,32.61
2023-04-07T05:31:26.468Z,32.57
2023-04-07T05:33:58.501Z,32.68
2023-04-07T05:36:31.948Z,32.64
2023-04-07T05:39:00.582Z,32.65
2023-04-07T05:41:29.135Z,32.67
2023-04-07T05:43:58.228Z,32.90
2023-04-07T05:46:29.601Z,32.78
2023-04-07T05:49:04.638Z,32.88
2023-04-07T05:51:41.910Z,32.96
2023-04-07T05:54:14.037Z,33.10
2023-04-07T05:56:43.673Z,33.24
2023-04-07T05:59:12.320Z,33.41
2023-04-07T06:01:41.391Z,33.35
2023-04-07T06:04:12.618Z,33.19
2023-04-07T06:06:41.123Z,33.27
2023-04-07T06:09:09.855Z,33.39
2023-04-07T06:11:38.660Z,33.14
2023-04-07T06:14:07.341Z,33.37
2023-04-07T06:16:36.376Z,33.40
2023-04-07T06:19:07.404Z,33.43
2023-04-07T06:21:35.958Z,33.43
2023-04-07T06:24:07.699Z,33.48
2023-04-07T06:26:37.208Z,33.51
2023-04-07T06:29:06.243Z,33.68
2023-04-07T06:31:34.503Z,33.74
2023-04-07T06:34:03.158Z,33.43
2023-04-07T06:36:31.484Z,33.69
2023-04-07T06:39:00.130Z,34.03
2023-04-07T06:41:28.405Z,34.74
2023-04-07T06:43:57.342Z,34.83
2023-04-07T06:46:27.305Z,34.62
2023-04-07T06:48:56.428Z,34.42
2023-04-07T06:51:26.607Z,34.21
2023-04-07T06:53:55.515Z,34.13
2023-04-07T06:56:24.029Z,33.96
2023-04-07T06:58:52.702Z,33.88
2023-04-07T07:01:21.060Z,33.54
2023-04-07T07:03:49.995Z,33.46
2023-04-07T07:06:18.868Z,33.30
2023-04-07T07:08:47.459Z,33.21
2023-04-07T07:11:15.821Z,33.07
2023-04-07T07:13:45.506Z,33.22
2023-04-07T07:16:14.002Z,32.61
2023-04-07T07:18:42.591Z,33.13
2023-04-07T07:21:11.077Z,33.26
2023-04-07T07:23:39.673Z,33.18
2023-04-07T07:26:08.032Z,33.01
2023-04-07T07:28:36.925Z,32.99
2023-04-07T07:31:13.545Z,32.98
2023-04-07T07:33:44.460Z,32.65
2023-04-07T07:36:12.872Z,32.67
2023-04-07T07:38:41.602Z,32.93
2023-04-07T07:41:10.031Z,32.72
2023-04-07T07:43:38.671Z,32.77
2023-04-07T07:46:07.001Z,32.71
2023-04-07T07:48:35.651Z,32.68
2023-04-07T07:51:04.378Z,32.87
2023-04-07T07:53:33.004Z,32.61
2023-04-07T07:56:02.028Z,32.77
2023-04-07T07:58:30.894Z,32.69
2023-04-07T08:00:59.167Z,32.50
2023-04-07T08:03:28.195Z,32.38
2023-04-07T08:05:56.602Z,32.46
2023-04-07T08:08:25.238Z,32.38
2023-04-07T08:10:53.635Z,32.43
2023-04-07T08:13:22.216Z,32.48
2023-04-07T08:15:50.988Z,32.37
2023-04-07T08:18:19.804Z,32.35
2023-04-07T08:20:48.011Z,32.46
2023-04-07T08:23:16.657Z,32.44
2023-04-07T08:25:44.976Z,32.18
2023-04-07T08:28:13.577Z,32.50
2023-04-07T08:30:41.825Z,32.21
2023-04-07T08:33:10.637Z,32.14
2023-04-07T08:35:38.927Z,32.15
2023-04-07T08:38:09.240Z,32.03
2023-04-07T08:40:37.618Z,31.85
2023-04-07T08:43:09.622Z,32.06
2023-04-07T08:45:42.322Z,31.99
2023-04-07T08:48:18.117Z,32.03
2023-04-07T08:50:46.526Z,32.02
2023-04-07T08:53:15.094Z,31.96
2023-04-07T08:55:43.509Z,31.95
2023-04-07T08:58:15.234Z,32.02
2023-04-07T09:00:46.253Z,32.03
2023-04-07T09:03:17.055Z,32.07
2023-04-07T09:05:46.631Z,31.98
2023-04-07T09:08:15.462Z,31.95
2023-04-07T09:10:43.968Z,31.93
2023-04-07T09:13:12.714Z,31.80
2023-04-07T09:15:41.613Z,31.81
2023-04-07T09:18:10.264Z,32.02
2023-04-07T09:21:01.840Z,31.58
2023-04-07T09:23:41.302Z,31.92
2023-04-07T09:26:20.643Z,31.91
2023-04-07T09:28:55.882Z,31.83
2023-04-07T09:31:27.292Z,31.62
2023-04-07T09:33:56.031Z,31.86
2023-04-07T09:36:27.260Z,31.81
2023-04-07T09:38:55.792Z,31.92
2023-04-07T09:41:24.147Z,32.00
2023-04-07T09:43:57.260Z,31.92
2023-04-07T09:46:26.361Z,32.08
2023-04-07T09:49:05.470Z,32.09
2023-04-07T09:51:36.507Z,32.01
2023-04-07T09:54:05.156Z,32.00
2023-04-07T09:56:33.433Z,32.21
2023-04-07T09:59:02.100Z,32.39
2023-04-07T10:01:30.503Z,32.33
2023-04-07T10:03:59.251Z,32.38
2023-04-07T10:06:27.869Z,32.33
2023-04-07T10:08:56.847Z,32.49
2023-04-07T10:11:25.115Z,32.34
2023-04-07T10:13:53.987Z,32.40
2023-04-07T10:16:22.797Z,32.21
2023-04-07T10:18:51.965Z,32.33
2023-04-07T10:21:20.557Z,32.38
2023-04-07T10:24:20.184Z,32.50
2023-04-07T10:26:55.047Z,32.41
2023-04-07T10:29:24.327Z,32.27
2023-04-07T10:31:52.969Z,32.28
2023-04-07T10:34:55.944Z,32.13
2023-04-07T10:37:24.967Z,32.11
2023-04-07T10:40:19.585Z,32.08
2023-04-07T10:42:48.088Z,31.31
2023-04-07T10:45:16.689Z,32.02
2023-04-07T10:48:11.520Z,31.78
2023-04-07T10:50:40.369Z,32.04
2023-04-07T10:53:16.384Z,32.13
2023-04-07T10:55:46.303Z,32.78
2023-04-07T10:58:31.006Z,33.14
2023-04-07T11:01:15.156Z,32.90
2023-04-07T11:03:57.834Z,33.29
2023-04-07T11:06:27.714Z,33.68
2023-04-07T11:08:56.326Z,34.01
2023-04-07T11:11:39.649Z,34.42
2023-04-07T11:14:07.949Z,34.75
2023-04-07T11:16:39.290Z,34.36
2023-04-07T11:19:07.709Z,34.91
2023-04-07T11:21:37.178Z,35.20
2023-04-07T11:24:05.909Z,35.08
2023-04-07T11:26:41.724Z,35.51
2023-04-07T11:29:12.323Z,35.31
2023-04-07T11:31:41.150Z,35.24
2023-04-07T11:34:09.766Z,35.43
2023-04-07T11:36:42.022Z,35.47
2023-04-07T11:39:23.163Z,35.36
2023-04-07T11:41:52.046Z,35.11
2023-04-07T11:44:20.634Z,35.27
2023-04-07T11:46:59.989Z,35.08
2023-04-07T11:49:29.005Z,34.88
2023-04-07T11:52:07.356Z,34.88
2023-04-07T11:54:50.155Z,34.69
2023-04-07T11:57:28.938Z,34.68
2023-04-07T12:00:08.980Z,34.74
2023-04-07T12:02:37.633Z,34.57
2023-04-07T12:05:07.377Z,34.70
2023-04-07T12:07:36.659Z,34.79
2023-04-07T12:10:22.042Z,34.87
2023-04-07T12:12:50.303Z,34.82
2023-04-07T12:15:19.099Z,34.75
2023-04-07T12:17:48.419Z,34.80
2023-04-07T12:20:17.302Z,34.74
2023-04-07T12:22:45.631Z,34.85
2023-04-07T12:25:14.335Z,34.95
2023-04-07T12:27:43.940Z,34.91
2023-04-07T12:30:13.565Z,34.81
2023-04-07T12:32:42.040Z,34.70
2023-04-07T12:35:10.782Z,34.62
2023-04-07T12:37:39.041Z,34.73
2023-04-07T12:40:08.549Z,34.52
2023-04-07T12:42:36.891Z,34.53
2023-04-07T12:45:06.481Z,34.47
2023-04-07T12:47:35.026Z,34.37
2023-04-07T12:50:04.009Z,34.54
2023-04-07T12:52:33.082Z,34.04
2023-04-07T12:55:02.021Z,34.12
2023-04-07T12:57:30.272Z,34.05
2023-04-07T12:59:59.079Z,34.02
2023-04-07T13:02:27.674Z,33.78
2023-04-07T13:04:56.879Z,33.75
2023-04-07T13:07:25.254Z,33.65
2023-04-07T13:09:54.887Z,33.93
2023-04-07T13:12:24.076Z,33.81
2023-04-07T13:14:59.612Z,33.77
2023-04-07T13:17:30.007Z,33.32
2023-04-07T13:19:59.210Z,33.71
2023-04-07T13:22:27.857Z,33.66
2023-04-07T13:24:56.503Z,33.72
2023-04-07T13:27:24.889Z,33.86
2023-04-07T13:29:53.763Z,33.59
2023-04-07T13:32:22.142Z,33.97
2023-04-07T13:34:51.221Z,33.90
2023-04-07T13:37:19.802Z,34.32
2023-04-07T13:39:48.801Z,34.31
2023-04-07T13:42:17.817Z,34.87
2023-04-07T13:44:47.677Z,34.57
2023-04-07T13:47:19.712Z,34.55
2023-04-07T13:49:48.990Z,34.61
2023-04-07T13:52:17.968Z,34.54
2023-04-07T13:54:46.809Z,34.58
2023-04-07T13:57:20.966Z,34.69
2023-04-07T13:59:52.503Z,34.66
2023-04-07T14:02:21.390Z,34.63
2023-04-07T14:04:50.510Z,34.72
2023-04-07T14:07:18.841Z,34.65
2023-04-07T14:09:48.380Z,34.68
2023-04-07T14:12:16.679Z,34.66
2023-04-07T14:14:45.524Z,34.77
2023-04-07T14:17:13.768Z,34.55
2023-04-07T14:19:42.586Z,34.62
2023-04-07T14:22:11.186Z,34.67
2023-04-07T14:24:39.878Z,34.50
2023-04-07T14:27:08.136Z,34.62
2023-04-07T14:29:36.754Z,34.54
2023-04-07T14:32:05.239Z,34.50
2023-04-07T14:34:33.875Z,34.78
2023-04-07T14:37:02.374Z,34.52
2023-04-07T14:39:31.144Z,34.14
2023-04-07T14:42:00.850Z,34.41
2023-04-07T14:44:29.674Z,34.31
2023-04-07T14:46:58.128Z,34.28
2023-04-07T14:49:28.886Z,34.41
2023-04-07T14:51:57.339Z,34.34
2023-04-07T14:54:26.199Z,34.36
2023-04-07T14:56:54.497Z,34.29
2023-04-07T14:59:23.143Z,34.07
2023-04-07T15:01:51.961Z,34.21
2023-04-07T15:04:20.840Z,34.15
2023-04-07T15:06:49.389Z,34.05
2023-04-07T15:09:19.630Z,34.08
2023-04-07T15:11:48.099Z,33.89
2023-04-07T15:14:16.738Z,33.93
2023-04-07T15:16:47.575Z,33.86
2023-04-07T15:19:16.812Z,33.96
2023-04-07T15:21:45.289Z,33.99
2023-04-07T15:24:15.850Z,33.94
2023-04-07T15:26:44.664Z,34.07
2023-04-07T15:29:13.361Z,33.88
2023-04-07T15:31:41.770Z,33.94
2023-04-07T15:34:10.480Z,33.88
2023-04-07T15:36:38.839Z,33.53
2023-04-07T15:39:07.566Z,33.46
2023-04-07T15:41:35.991Z,33.76
2023-04-07T15:44:04.711Z,33.73
2023-04-07T15:46:33.075Z,33.80
2023-04-07T15:49:01.832Z,33.76
2023-04-07T15:51:30.222Z,33.83
2023-04-07T15:54:00.382Z,33.61
2023-04-07T15:56:28.747Z,33.83
2023-04-07T15:58:57.414Z,33.88
2023-04-07T16:01:26.011Z,33.53
2023-04-07T16:03:54.875Z,33.88
2023-04-07T16:06:23.636Z,33.93
2023-04-07T16:08:52.269Z,33.88
2023-04-07T16:11:21.527Z,33.90
2023-04-07T16:13:50.736Z,34.04
2023-04-07T16:16:19.327Z,34.13
2023-04-07T16:18:48.267Z,34.26
2023-04-07T16:21:16.765Z,34.03
2023-04-07T16:23:45.373Z,34.08
2023-04-07T16:26:13.634Z,33.98
2023-04-07T16:28:44.322Z,34.08
2023-04-07T16:31:12.617Z,34.21
2023-04-07T16:33:42.240Z,34.44
2023-04-07T16:36:10.671Z,34.61
2023-04-07T16:38:39.283Z,34.57
2023-04-07T16:41:10.720Z,34.53
2023-04-07T16:43:39.269Z,34.50
2023-04-07T16:46:07.777Z,34.53
2023-04-07T16:48:36.614Z,34.64
2023-04-07T16:51:05.131Z,34.46
2023-04-07T16:53:33.825Z,34.29
2023-04-07T16:56:02.260Z,34.47
2023-04-07T16:58:32.310Z,34.21
2023-04-07T17:01:00.653Z,34.17
2023-04-07T17:03:29.494Z,34.22
2023-04-07T17:05:57.918Z,34.21
2023-04-07T17:08:26.614Z,34.15
2023-04-07T17:10:55.012Z,34.15
2023-04-07T17:13:23.876Z,34.10
2023-04-07T17:15:53.990Z,34.08
2023-04-07T17:18:22.641Z,34.04
2023-04-07T17:20:52.026Z,33.91
2023-04-07T17:23:20.829Z,33.86
2023-04-07T17:25:52.413Z,33.70
2023-04-07T17:28:21.305Z,33.86
2023-04-07T17:30:49.734Z,33.83
2023-04-07T17:33:18.525Z,33.81
2023-04-07T17:35:50.046Z,33.61
2023-04-07T17:38:18.767Z,33.75
2023-04-07T17:40:47.158Z,33.67
2023-04-07T17:43:15.944Z,33.54
2023-04-07T17:45:44.416Z,33.40
2023-04-07T17:48:13.264Z,33.48
2023-04-07T17:50:43.680Z,33.41
2023-04-07T17:53:12.348Z,33.43
2023-04-07T17:55:43.624Z,33.53
2023-04-07T17:58:12.701Z,33.52
2023-04-07T18:00:41.457Z,33.58
2023-04-07T18:03:12.050Z,33.64
2023-04-07T18:05:45.115Z,33.45
2023-04-07T18:08:15.247Z,33.57
2023-04-07T18:10:43.784Z,33.60
2023-04-07T18:13:12.899Z,33.85
2023-04-07T18:15:41.600Z,33.53
2023-04-07T18:18:10.246Z,33.59
2023-04-07T18:20:38.727Z,33.67
2023-04-07T18:23:08.345Z,33.79
2023-04-07T18:25:36.854Z,33.68
2023-04-07T18:28:06.291Z,33.81
2023-04-07T18:30:34.857Z,33.74
2023-04-07T18:33:03.665Z,33.79
2023-04-07T18:35:32.258Z,33.74
2023-04-07T18:38:04.667Z,33.83
2023-04-07T18:40:33.605Z,33.68
2023-04-07T18:43:02.710Z,34.14
2023-04-07T18:45:31.860Z,33.87
2023-04-07T18:48:00.593Z,33.90
2023-04-07T18:50:29.198Z,33.81
2023-04-07T18:52:58.846Z,33.87
2023-04-07T18:55:27.301Z,34.13
2023-04-07T18:57:55.857Z,33.99
2023-04-07T19:00:24.357Z,33.77
2023-04-07T19:02:53.103Z,34.20
2023-04-07T19:05:23.793Z,34.07
2023-04-07T19:07:54.322Z,33.99
2023-04-07T19:10:22.753Z,33.63
2023-04-07T19:12:51.987Z,33.86
2023-04-07T19:15:20.838Z,33.99
2023-04-07T19:17:49.821Z,34.02
2023-04-07T19:20:18.379Z,33.88
2023-04-07T19:22:46.988Z,33.90
2023-04-07T19:25:15.787Z,34.19
2023-04-07T19:27:44.871Z,34.13
2023-04-07T19:30:13.458Z,34.12
2023-04-07T19:32:44.187Z,34.21
2023-04-07T19:35:12.646Z,34.19
2023-04-07T19:37:41.338Z,34.15
2023-04-07T19:40:10.253Z,34.25
2023-04-07T19:42:42.272Z,34.21
2023-04-07T19:45:11.658Z,34.18
2023-04-07T19:47:41.687Z,34.28
2023-04-07T19:50:12.166Z,34.28
2023-04-07T19:52:43.678Z,34.19
2023-04-07T19:55:13.407Z,34.22
2023-04-07T19:57:42.224Z,34.28
2023-04-07T20:00:11.815Z,34.42
2023-04-07T20:02:50.457Z,34.42
2023-04-07T20:05:19.927Z,34.44
2023-04-07T20:07:48.820Z,34.30
2023-04-07T20:10:17.188Z,34.42
2023-04-07T20:12:46.070Z,34.78
2023-04-07T20:15:14.600Z,34.57
2023-04-07T20:17:43.681Z,34.59
2023-04-07T20:20:13.133Z,34.58
2023-04-07T20:22:41.815Z,34.66
2023-04-07T20:25:10.490Z,34.74
2023-04-07T20:27:40.132Z,34.87
2023-04-07T20:30:09.287Z,34.73
2023-04-07T20:32:39.352Z,34.84
2023-04-07T20:35:08.724Z,34.83
2023-04-07T20:37:37.342Z,34.74
2023-04-07T20:40:07.210Z,34.76
2023-04-07T20:42:35.932Z,34.90
2023-04-07T20:45:05.155Z,34.86
2023-04-07T20:47:36.219Z,35.00
2023-04-07T20:50:05.085Z,34.92
2023-04-07T20:52:35.801Z,35.14
2023-04-07T20:55:04.554Z,35.01
2023-04-07T20:57:33.384Z,35.11
2023-04-07T21:00:02.609Z,35.10
2023-04-07T21:02:31.350Z,35.10
2023-04-07T21:05:00.007Z,35.17
2023-04-07T21:07:28.634Z,35.30
2023-04-07T21:09:57.068Z,35.37
2023-04-07T21:12:25.755Z,35.19
2023-04-07T21:14:54.080Z,35.32
2023-04-07T21:17:22.853Z,35.25
2023-04-07T21:19:51.278Z,35.44
2023-04-07T21:22:19.951Z,35.46
2023-04-07T21:24:48.443Z,35.42
2023-04-07T21:27:17.845Z,35.44
2023-04-07T21:29:46.534Z,35.54
2023-04-07T21:32:15.516Z,35.65
2023-04-07T21:34:43.884Z,35.66
2023-04-07T21:37:12.491Z,35.63
2023-04-07T21:39:40.947Z,35.60
2023-04-07T21:42:09.582Z,35.63
2023-04-07T21:44:38.042Z,35.56
2023-04-07T21:47:06.799Z,35.60
2023-04-07T21:49:36.275Z,35.73
2023-04-07T21:52:07.902Z,35.66
2023-04-07T21:54:36.696Z,35.61
2023-04-07T21:57:05.847Z,35.61
2023-04-07T21:59:35.633Z,35.68
2023-04-07T22:02:04.806Z,35.70
2023-04-07T22:04:33.394Z,35.55
2023-04-07T22:07:02.951Z,35.76
2023-04-07T22:09:31.302Z,35.59
2023-04-07T22:11:59.963Z,35.67
2023-04-07T22:14:28.302Z,35.83
2023-04-07T22:16:56.927Z,35.75
2023-04-07T22:19:25.775Z,35.77
2023-04-07T22:21:54.638Z,35.79
2023-04-07T22:24:23.026Z,35.69
2023-04-07T22:26:54.047Z,35.68
2023-04-07T22:29:22.491Z,35.75
2023-04-07T22:31:51.334Z,35.69
2023-04-07T22:34:19.872Z,35.80
2023-04-07T22:36:48.562Z,35.79
2023-04-07T22:39:17.136Z,35.75
2023-04-07T22:41:45.826Z,35.74
2023-04-07T22:44:14.160Z,35.75
2023-04-07T22:46:42.986Z,35.68
2023-04-07T22:49:11.698Z,35.85
2023-04-07T22:51:41.237Z,35.81
2023-04-07T22:54:09.557Z,35.90
2023-04-07T22:56:38.191Z,35.68
2023-04-07T22:59:07.157Z,36.02
2023-04-07T23:01:36.011Z,35.70
2023-04-07T23:04:04.429Z,36.02
2023-04-07T23:06:33.615Z,35.88
2023-04-07T23:09:02.066Z,35.84
2023-04-07T23:11:31.006Z,35.85
2023-04-07T23:13:59.377Z,35.89
2023-04-07T23:16:28.019Z,35.80
2023-04-07T23:18:56.607Z,35.92
2023-04-07T23:21:26.470Z,35.77
2023-04-07T23:23:54.847Z,35.80
2023-04-07T23:26:23.547Z,35.68
2023-04-07T23:28:51.994Z,35.77
2023-04-07T23:31:20.956Z,35.78
2023-04-07T23:33:49.298Z,35.83
2023-04-07T23:36:17.957Z,35.82
2023-04-07T23:38:46.278Z,35.65
2023-04-07T23:41:14.825Z,35.74
2023-04-07T23:43:43.234Z,35.67
2023-04-07T23:46:11.913Z,35.61
2023-04-07T23:48:40.250Z,35.88
2023-04-07T23:51:08.870Z,35.74
2023-04-07T23:53:37.181Z,35.67
2023-04-07T23:56:06.309Z,35.83
2023-04-07T23:58:34.588Z,35.71
